Terminal Aerodrome Forecast
Issued by NWS

Home | Current Version | Previous Version | Text Only | Print | Product List | Glossary Off
Versions: 1 2 3 4 5 6 7 8 9 10 11 12 13 14 15 16

402
FTUS43 KMPX 151724
TAFRWF
TAF
KRWF 151724Z 1518/1618 19008KT P6SM FEW250
     FM160800 21005KT P6SM BKN250
     FM161400 VRB03KT 2SM BR SCT006 OVC012=

USA.gov is the U.S. government's official web portal to all federal, state and local government web resources and services.